Latest Weather Observations for Samuel Hill

IDQ60801

Issued at 4:05 pm EST Monday 28 July 2014 (issued every 30 minutes, with the page automatically refreshed every 10 minutes)

About weather observations | Map of weather stations | Latest weather observations for QLD | Other Formats
Station Details ID: 033308 Name: SAMUEL HILL AERO Lat: -22.74 Lon: 150.66 Height: 31.0 m
Data from the previous 72 hours. | See also: Recent months at Samuel Hill
Date/Time
EST
Temp
°C
App
Temp
°C
Dew
Point
Rel
Hum
%
Delta-T
°C
Wind Press
QNH
hPa
Press
MSL
hPa
Rain
since 9 am
mm
Dir
 
Spd
km/h
Gust
km/h
Spd
kts
Gust
kts
28/04:00pm 21.8 20.0 13.2 58 4.9 E 15 20 8 11 1019.7 - 0.0
28/03:30pm 22.5 20.8 13.6 57 5.2 ENE 15 20 8 11 1019.7 - 0.0
28/03:00pm 22.4 20.8 12.9 55 5.4 ESE 13 19 7 10 1019.7 1019.7 0.0
28/02:30pm 22.6 21.2 13.4 56 5.3 ESE 13 19 7 10 1020.0 - 0.0
28/02:00pm 22.9 21.3 13.9 57 5.3 E 15 22 8 12 1020.4 - 0.0
28/01:30pm 22.8 21.7 14.4 59 4.9 ESE 13 20 7 11 1020.7 - 0.0
28/01:00pm 22.7 21.6 14.3 59 4.9 ESE 13 17 7 9 1021.1 - 0.0
28/12:30pm 22.8 22.3 14.9 61 4.7 SE 11 19 6 10 1021.7 - 0.0
28/12:00pm 21.0 21.1 15.5 71 3.3 SSE 9 17 5 9 1022.3 1022.3 0.0
28/11:30am 21.9 21.2 15.5 67 3.8 S 13 19 7 10 1022.9 - 0.0
28/11:00am 21.6 21.4 15.7 69 3.5 SE 11 19 6 10 1023.4 - 0.0
28/10:30am 20.4 20.6 15.8 75 2.7 SSE 9 15 5 8 1023.8 - 0.0
28/10:00am 19.6 19.6 16.3 81 2.0 SE 11 17 6 9 1024.0 - 0.0
28/09:30am 18.4 18.6 15.8 85 1.5 SE 9 15 5 8 1023.9 - 0.0
28/09:00am 17.2 18.7 16.6 96 0.4 SSE 4 7 2 4 1024.0 1024.0 0.2
28/08:44am 15.7 16.3 15.2 97 0.3 S 6 13 3 7 1023.8 - 0.2
28/08:41am 15.8 16.8 15.3 97 0.3 S 4 11 2 6 1023.7 - 0.2
28/08:30am 14.7 16.0 14.2 97 0.3 CALM 0 0 0 0 1023.6 - 0.2
28/08:00am 13.0 13.8 12.5 97 0.3 CALM 0 0 0 0 1023.4 - 0.2
28/07:30am 11.3 11.6 10.8 97 0.3 CALM 0 0 0 0 1023.2 - 0.2
28/07:00am 10.4 10.4 9.8 96 0.3 CALM 0 0 0 0 1022.9 - 0.0
28/06:30am 10.4 10.4 9.8 96 0.3 CALM 0 0 0 0 1022.5 - 0.0
28/06:00am 10.7 10.8 10.1 96 0.3 SW 0 0 0 0 1022.1 1022.1 0.0
28/05:30am 10.2 10.1 9.6 96 0.3 CALM 0 0 0 0 1021.8 - 0.0
28/05:00am 9.9 9.8 9.3 96 0.3 CALM 0 0 0 0 1021.4 - 0.0
28/04:30am 9.9 9.8 9.3 96 0.3 CALM 0 0 0 0 1021.3 - 0.0
28/04:00am 9.6 9.3 8.8 95 0.4 CALM 0 0 0 0 1021.5 - 0.0
28/03:35am 9.6 9.3 8.8 95 0.4 CALM 0 0 0 0 1021.5 - 0.0
28/03:30am 9.6 9.3 8.8 95 0.4 CALM 0 0 0 0 1021.5 - 0.0
28/03:12am 9.5 9.2 8.6 94 0.4 CALM 0 0 0 0 1021.5 - 0.0
28/03:00am 9.5 9.2 8.6 94 0.4 CALM 0 0 0 0 1021.5 1021.5 0.0
28/02:30am 9.7 9.5 8.9 95 0.4 CALM 0 0 0 0 1021.7 - 0.0
28/02:00am 10.1 10.0 9.3 95 0.4 CALM 0 0 0 0 1021.8 - 0.0
28/01:30am 9.8 9.6 8.9 94 0.4 CALM 0 0 0 0 1022.1 - 0.0
28/01:00am 9.8 9.6 8.9 94 0.4 CALM 0 0 0 0 1022.4 - 0.0
28/12:30am 10.0 9.8 9.1 94 0.4 CALM 0 0 0 0 1022.7 - 0.0
28/12:00am 10.4 10.3 9.5 94 0.4 SW 0 0 0 0 1022.9 1022.9 0.0
 
Date/Time
EST
Temp
°C
App
Temp
°C
Dew
Point
Rel
Hum
%
Delta-T
°C
Wind Press
QNH
hPa
Press
MSL
hPa
Rain
since 9 am
mm
Dir
 
Spd
km/h
Gust
km/h
Spd
kts
Gust
kts
27/11:30pm 10.4 10.3 9.3 93 0.5 CALM 0 0 0 0 1023.2 - 0.0
27/11:00pm 10.9 10.9 9.8 93 0.6 CALM 0 0 0 0 1023.2 - 0.0
27/10:30pm 11.0 11.0 9.8 92 0.6 CALM 0 0 0 0 1023.2 - 0.0
27/10:00pm 11.7 11.9 10.6 93 0.6 CALM 0 0 0 0 1023.2 - 0.0
27/09:30pm 11.8 12.0 10.5 92 0.7 CALM 0 0 0 0 1023.1 - 0.0
27/09:00pm 12.3 12.6 10.9 91 0.7 CALM 0 0 0 0 1022.9 1022.9 0.0
27/08:30pm 13.0 13.5 11.7 92 0.7 CALM 0 0 0 0 1022.6 - 0.0
27/08:00pm 13.4 14.0 11.8 90 0.9 CALM 0 0 0 0 1022.3 - 0.0
27/07:30pm 14.3 15.1 12.5 89 1.0 CALM 0 6 0 3 1022.0 - 0.0
27/07:00pm 15.1 15.3 13.0 87 1.2 NE 4 7 2 4 1021.6 - 0.0
27/06:30pm 15.7 16.4 12.3 80 1.9 CALM 0 0 0 0 1021.0 - 0.0
27/06:00pm 17.6 18.4 12.7 73 2.7 CALM 0 0 0 0 1020.8 1020.8 0.0
27/05:30pm 19.7 19.2 12.5 63 4.0 ENE 7 9 4 5 1020.6 - 0.0
27/05:00pm 21.4 20.5 12.5 57 5.0 ENE 9 13 5 7 1020.4 - 0.0
27/04:30pm 22.4 20.9 11.8 51 6.0 ENE 11 15 6 8 1020.3 - 0.0
27/04:00pm 23.3 22.3 12.3 50 6.3 ENE 9 15 5 8 1020.4 - 0.0
27/03:30pm 23.4 22.0 12.1 49 6.4 ESE 11 19 6 10 1020.4 - 0.0
27/03:00pm 23.5 21.6 11.9 48 6.5 ESE 13 20 7 11 1020.4 1020.4 0.0
27/02:30pm 24.1 22.4 12.4 48 6.7 ESE 13 22 7 12 1020.5 - 0.0
27/02:00pm 23.7 21.6 11.1 45 7.0 SE 13 22 7 12 1020.7 - 0.0
27/01:30pm 23.7 20.9 10.0 42 7.5 SSE 15 22 8 12 1021.0 - 0.0
27/01:00pm 24.0 22.1 12.9 50 6.4 SE 15 24 8 13 1021.5 - 0.0
27/12:30pm 23.8 22.2 13.9 54 5.8 SE 15 24 8 13 1022.0 - 0.0
27/12:00pm 23.0 21.0 14.0 57 5.3 SE 17 28 9 15 1022.5 1022.5 0.0
27/11:30am 21.8 20.5 14.9 65 4.1 SSE 15 22 8 12 1023.1 - 0.0
27/11:00am 21.0 20.5 15.8 72 3.1 S 13 19 7 10 1023.5 - 0.0
27/10:36am 20.7 20.7 16.3 76 2.7 SE 11 17 6 9 1023.8 - 0.0
27/10:30am 20.2 20.3 16.4 79 2.3 SSE 11 19 6 10 1023.9 - 0.0
27/10:00am 19.0 18.7 16.4 85 1.6 SE 13 20 7 11 1024.1 - 0.0
27/09:30am 18.0 17.2 16.2 89 1.1 SE 15 20 8 11 1024.3 - 0.0
27/09:25am 18.2 17.9 16.5 90 1.0 SE 13 17 7 9 1024.3 - 0.0
27/09:11am 17.9 18.0 16.6 92 0.8 SSE 11 17 6 9 1024.3 - 0.0
27/09:00am 17.8 17.6 16.7 93 0.7 SE 13 20 7 11 1024.3 1024.3 0.2
27/08:30am 17.6 17.4 16.6 94 0.6 SSE 13 22 7 12 1024.0 - 0.2
27/08:00am 17.4 19.3 16.8 96 0.4 S 2 9 1 5 1023.6 - 0.2
27/07:30am 16.3 17.8 15.7 96 0.4 SSW 2 7 1 4 1023.5 - 0.2
27/07:00am 15.6 17.2 14.8 95 0.5 CALM 0 7 0 4 1023.2 - 0.2
27/06:30am 15.9 17.3 15.3 96 0.3 WSW 2 7 1 4 1023.0 - 0.2
27/06:00am 16.4 18.3 15.8 96 0.4 CALM 0 4 0 2 1022.9 1022.9 0.2
27/05:30am 16.1 17.9 15.5 96 0.3 CALM 0 6 0 3 1022.7 - 0.2
27/05:27am 16.1 17.9 15.5 96 0.3 CALM 0 0 0 0 1022.7 - 0.2
27/05:00am 15.5 17.1 14.9 96 0.3 CALM 0 0 0 0 1022.6 - 0.2
27/04:30am 15.6 17.2 15.0 96 0.3 CALM 0 0 0 0 1022.4 - 0.0
27/04:00am 15.3 16.7 14.5 95 0.5 CALM 0 0 0 0 1022.4 - 0.0
27/03:30am 15.4 16.9 14.6 95 0.5 CALM 0 0 0 0 1022.4 - 0.0
27/03:14am 15.7 17.4 15.1 96 0.3 CALM 0 0 0 0 1022.4 - 0.0
27/03:00am 16.1 17.9 15.5 96 0.3 CALM 0 0 0 0 1022.5 1022.5 0.0
27/02:33am 15.3 16.7 14.5 95 0.5 CALM 0 0 0 0 1022.8 - 0.0
27/02:30am 15.2 16.6 14.4 95 0.5 CALM 0 0 0 0 1022.8 - 0.0
27/02:08am 14.4 15.4 13.3 93 0.6 CALM 0 0 0 0 1023.0 - 0.0
27/02:00am 14.4 15.5 13.4 94 0.6 CALM 0 0 0 0 1023.1 - 0.0
27/01:38am 15.7 16.9 14.9 95 0.5 SSW 2 7 1 4 1023.2 - 0.0
27/01:30am 15.8 17.4 15.0 95 0.5 CALM 0 0 0 0 1023.3 - 0.0
27/01:00am 16.5 17.7 15.9 96 0.4 S 4 7 2 4 1023.8 - 0.0
27/12:30am 16.2 18.0 15.4 95 0.5 CALM 0 0 0 0 1024.0 - 0.0
27/12:00am 16.3 18.1 15.5 95 0.5 CALM 0 0 0 0 1024.0 1024.0 0.0
 
Date/Time
EST
Temp
°C
App
Temp
°C
Dew
Point
Rel
Hum
%
Delta-T
°C
Wind Press
QNH
hPa
Press
MSL
hPa
Rain
since 9 am
mm
Dir
 
Spd
km/h
Gust
km/h
Spd
kts
Gust
kts
26/11:30pm 16.7 17.5 15.9 95 0.5 SW 6 9 3 5 1024.4 - 0.0
26/11:00pm 16.7 18.7 15.9 95 0.5 CALM 0 0 0 0 1024.4 - 0.0
26/10:30pm 17.0 17.7 16.0 94 0.6 SSW 7 9 4 5 1024.7 - 0.0
26/10:00pm 17.1 19.1 16.0 93 0.6 CALM 0 0 0 0 1024.7 - 0.0
26/09:30pm 17.5 19.3 16.4 93 0.7 S 2 7 1 4 1025.1 - 0.0
26/09:00pm 17.6 18.7 16.5 93 0.7 SSE 6 9 3 5 1025.0 1025.0 0.0
26/08:30pm 17.8 18.9 16.5 92 0.8 S 6 9 3 5 1024.8 - 0.0
26/08:00pm 17.8 20.0 16.5 92 0.8 CALM 0 0 0 0 1024.7 - 0.0
26/07:30pm 17.9 19.0 16.6 92 0.8 S 6 9 3 5 1024.6 - 0.0
26/07:00pm 17.9 19.7 16.4 91 0.9 ESE 2 6 1 3 1024.4 - 0.0
26/06:30pm 18.1 18.9 16.4 90 1.0 SE 7 9 4 5 1024.1 - 0.0
26/06:00pm 18.5 19.4 16.7 89 1.1 SE 7 11 4 6 1024.0 1024.0 0.0
26/05:30pm 18.6 19.8 16.8 89 1.1 S 6 9 3 5 1023.7 - 0.0
26/05:00pm 19.0 20.1 17.0 88 1.2 SSE 7 9 4 5 1023.5 - 0.0
26/04:30pm 19.3 19.9 16.9 86 1.5 SE 9 13 5 7 1023.3 - 0.0
26/04:00pm 19.7 20.4 17.1 85 1.6 SE 9 13 5 7 1023.2 - 0.0
26/03:30pm 20.2 21.0 17.2 83 1.8 SE 9 13 5 7 1023.2 - 0.0
26/03:00pm 20.6 21.5 17.6 83 1.8 SE 9 15 5 8 1022.9 1022.9 0.0
26/02:30pm 20.9 21.4 17.5 81 2.1 SSE 11 17 6 9 1023.0 - 0.0
26/02:00pm 21.2 21.7 17.4 79 2.3 SE 11 17 6 9 1023.0 - 0.0
26/01:30pm 21.6 22.0 17.2 76 2.7 SE 11 17 6 9 1023.3 - 0.0
26/01:00pm 21.6 21.9 17.8 79 2.4 SE 13 20 7 11 1023.6 - 0.0
26/12:30pm 20.7 21.4 17.9 84 1.7 S 11 13 6 7 1023.8 - 0.0
26/12:00pm 20.5 21.6 17.9 85 1.6 SSE 9 15 5 8 1024.1 1024.1 0.0
26/11:30am 20.2 21.2 17.8 86 1.5 SE 9 15 5 8 1024.7 - 0.0
26/11:00am 19.8 21.0 18.3 91 0.9 SSE 9 15 5 8 1025.2 - 0.0
26/10:30am 18.8 20.1 17.6 93 0.7 SSE 7 13 4 7 1025.2 - 0.0
26/10:00am 18.3 19.1 17.3 94 0.6 SSE 9 13 5 7 1025.3 - 0.0
26/09:30am 18.0 18.8 17.4 96 0.4 SSE 9 13 5 7 1025.2 - 0.0
26/09:08am 17.8 19.0 17.3 97 0.3 SSE 7 11 4 6 1025.4 - 0.0
26/09:03am 17.7 18.8 17.2 97 0.3 SSE 7 13 4 7 1025.4 - 0.0
26/09:00am 17.7 18.8 17.2 97 0.3 SSE 7 13 4 7 1025.4 1025.4 0.0
26/08:30am 17.4 18.4 16.9 97 0.3 SSE 7 13 4 7 1025.3 - 0.0
26/08:00am 17.0 17.9 16.5 97 0.3 SSE 7 9 4 5 1025.0 - 0.0
26/07:30am 16.6 16.9 16.1 97 0.3 SSE 9 13 5 7 1024.8 - 0.0
26/07:00am 16.3 16.5 15.8 97 0.3 SSE 9 13 5 7 1024.6 - 0.0
26/06:30am 15.3 15.5 14.7 96 0.3 SE 7 9 4 5 1024.3 - 0.0
26/06:21am 14.1 14.0 13.3 95 0.4 SSE 6 9 3 5 1024.4 - 0.0
26/06:20am 13.9 13.7 13.1 95 0.4 SSE 6 9 3 5 1024.4 - 0.0
26/06:00am 14.0 15.0 13.2 95 0.4 CALM 0 0 0 0 1024.4 1024.4 0.0
26/05:44am 14.1 15.2 13.5 96 0.3 CALM 0 0 0 0 1024.3 - 0.0
26/05:33am 14.0 15.1 13.4 96 0.3 CALM 0 0 0 0 1024.2 - 0.0
26/05:30am 14.0 15.1 13.4 96 0.3 CALM 0 0 0 0 1024.1 - 0.0
26/05:21am 14.2 15.3 13.6 96 0.3 CALM 0 0 0 0 1023.9 - 0.0
26/05:16am 14.0 15.0 13.2 95 0.4 CALM 0 0 0 0 1023.9 - 0.0
26/05:00am 13.5 14.3 12.6 94 0.5 CALM 0 0 0 0 1023.7 - 0.0
26/04:38am 14.1 15.1 13.3 95 0.4 CALM 0 0 0 0 1023.8 - 0.0
26/04:30am 14.2 15.3 13.4 95 0.4 CALM 0 0 0 0 1023.9 - 0.0
26/04:00am 14.8 15.0 14.2 96 0.3 SW 6 7 3 4 1024.0 - 0.0
26/03:48am 15.4 17.0 14.9 97 0.3 CALM 0 6 0 3 1024.0 - 0.0
26/03:46am 15.4 17.0 14.9 97 0.3 CALM 0 0 0 0 1024.0 - 0.0
26/03:30am 15.6 16.1 15.1 97 0.3 S 6 7 3 4 1024.0 - 0.0
26/03:20am 15.8 16.4 15.3 97 0.3 S 6 7 3 4 1024.1 - 0.0
26/03:14am 15.8 16.4 15.3 97 0.3 S 6 11 3 6 1024.1 - 0.0
26/03:00am 16.2 16.8 15.7 97 0.3 SSE 7 11 4 6 1024.3 1024.3 0.0
26/02:54am 16.2 16.4 15.7 97 0.3 SSE 9 13 5 7 1024.2 - 0.0
26/02:47am 15.9 16.0 15.4 97 0.3 SSE 9 13 5 7 1024.2 - 0.0
26/02:30am 13.6 13.4 13.0 96 0.3 SE 6 7 3 4 1024.3 - 0.0
26/02:00am 13.7 13.9 13.1 96 0.3 S 4 7 2 4 1024.4 - 0.0
26/01:59am 13.7 13.9 13.1 96 0.3 S 4 7 2 4 1024.4 - 0.0
26/01:52am 13.6 13.8 13.0 96 0.3 SSW 4 7 2 4 1024.5 - 0.0
26/01:30am 13.5 14.0 12.9 96 0.3 SSW 2 6 1 3 1024.6 - 0.0
26/01:25am 13.4 14.3 12.8 96 0.3 CALM 0 0 0 0 1024.6 - 0.0
26/01:00am 13.2 14.0 12.4 95 0.4 CALM 0 0 0 0 1024.9 - 0.0
26/12:30am 12.8 13.4 11.9 94 0.5 CALM 0 0 0 0 1025.1 - 0.0
26/12:00am 12.9 13.6 12.1 95 0.4 CALM 0 0 0 0 1025.4 1025.4 0.0
 
Date/Time
EST
Temp
°C
App
Temp
°C
Dew
Point
Rel
Hum
%
Delta-T
°C
Wind Press
QNH
hPa
Press
MSL
hPa
Rain
since 9 am
mm
Dir
 
Spd
km/h
Gust
km/h
Spd
kts
Gust
kts
25/11:30pm 12.4 12.8 11.1 92 0.7 CALM 0 0 0 0 1025.4 - 0.0
25/11:00pm 13.2 13.9 12.1 93 0.6 CALM 0 0 0 0 1025.4 - 0.0
25/10:30pm 13.7 14.5 12.6 93 0.6 CALM 0 0 0 0 1025.6 - 0.0
25/10:00pm 14.5 14.8 13.4 93 0.6 SSW 4 7 2 4 1025.5 - 0.0
25/09:30pm 16.3 16.8 15.5 95 0.5 SSE 7 9 4 5 1025.4 - 0.0
25/09:00pm 16.1 16.5 15.3 95 0.5 SE 7 9 4 5 1025.4 1025.4 0.0
25/08:30pm 16.1 16.5 15.3 95 0.5 SSE 7 9 4 5 1025.3 - 0.0
25/08:25pm 16.1 16.5 15.3 95 0.5 S 7 9 4 5 1025.2 - 0.0
25/08:02pm 14.3 15.0 12.3 88 1.1 CALM 0 0 0 0 1025.1 - 0.0
25/08:00pm 14.3 15.0 12.3 88 1.1 CALM 0 0 0 0 1025.1 - 0.0
25/07:30pm 16.6 17.3 15.6 94 0.6 S 6 7 3 4 1024.7 - 0.0
25/07:00pm 16.2 17.7 14.7 91 0.9 CALM 0 0 0 0 1024.4 - 0.0
25/06:30pm 16.8 18.4 15.0 89 1.0 CALM 0 4 0 2 1024.0 - 0.0
25/06:00pm 18.0 18.7 16.0 88 1.2 SSE 7 9 4 5 1023.5 1023.5 0.0
25/05:30pm 18.8 19.2 16.4 86 1.4 SE 9 15 5 8 1023.2 - 0.0
25/05:00pm 19.5 19.9 16.3 82 1.9 ESE 9 15 5 8 1022.8 - 0.0
25/04:30pm 20.5 20.0 15.9 75 2.8 ESE 13 20 7 11 1022.6 - 0.0

Other Formats:

Comma delimited format used in spreadsheet applications
http://www.bom.gov.au/fwo/IDQ60801/IDQ60801.94370.axf

JavaScript Object Notation format (JSON) in row-major order
http://www.bom.gov.au/fwo/IDQ60801/IDQ60801.94370.json